createdAt,value
2018-07-16T00:01:26.845Z,14.50
2018-07-16T00:03:54.979Z,14.40
2018-07-16T00:06:34.800Z,14.40
2018-07-16T00:09:03.361Z,14.30
2018-07-16T00:11:33.557Z,14.30
2018-07-16T00:14:01.693Z,14.20
2018-07-16T00:16:32.799Z,14.20
2018-07-16T00:19:00.905Z,14.20
2018-07-16T00:21:35.470Z,14.10
2018-07-16T00:24:03.823Z,14.10
2018-07-16T00:26:38.653Z,14.10
2018-07-16T00:29:06.832Z,14.10
2018-07-16T00:31:37.062Z,14.00
2018-07-16T00:34:09.810Z,14.00
2018-07-16T00:36:43.227Z,14.00
2018-07-16T00:39:13.991Z,13.90
2018-07-16T00:41:42.440Z,13.90
2018-07-16T00:44:10.638Z,13.90
2018-07-16T00:46:43.030Z,13.80
2018-07-16T00:49:17.013Z,13.80
2018-07-16T00:51:45.364Z,13.80
2018-07-16T00:54:13.619Z,13.70
2018-07-16T00:56:46.973Z,13.70
2018-07-16T00:59:21.947Z,13.70
2018-07-16T01:01:52.190Z,13.70
2018-07-16T01:04:20.474Z,13.70
2018-07-16T01:06:52.832Z,13.80
2018-07-16T01:09:27.375Z,13.80
2018-07-16T01:11:59.830Z,13.80
2018-07-16T01:14:28.209Z,13.90
2018-07-16T01:17:02.801Z,13.90
2018-07-16T01:19:32.984Z,13.90
2018-07-16T01:22:01.368Z,13.90
2018-07-16T01:24:32.790Z,13.90
2018-07-16T01:27:10.383Z,13.90
2018-07-16T01:29:48.474Z,13.90
2018-07-16T01:32:18.921Z,13.80
2018-07-16T01:34:47.170Z,13.80
2018-07-16T01:37:15.324Z,13.80
2018-07-16T01:39:50.728Z,13.80
2018-07-16T01:42:21.646Z,13.70
2018-07-16T01:44:49.952Z,13.60
2018-07-16T01:47:20.848Z,13.60
2018-07-16T01:49:59.411Z,13.60
2018-07-16T01:52:38.990Z,13.50
2018-07-16T01:55:20.197Z,13.50
2018-07-16T01:58:00.310Z,13.40
2018-07-16T02:00:28.759Z,13.40
2018-07-16T02:02:56.925Z,13.40
2018-07-16T02:05:30.138Z,13.30
2018-07-16T02:08:03.190Z,13.30
2018-07-16T02:10:31.385Z,13.30
2018-07-16T02:13:04.859Z,13.20
2018-07-16T02:15:35.728Z,13.30
2018-07-16T02:18:03.951Z,13.20
2018-07-16T02:20:32.128Z,13.20
2018-07-16T02:23:00.633Z,13.10
2018-07-16T02:25:41.306Z,13.00
2018-07-16T02:28:10.210Z,13.00
2018-07-16T02:30:41.067Z,13.00
2018-07-16T02:35:41.265Z,12.90
2018-07-16T02:38:09.533Z,12.90
2018-07-16T02:40:44.483Z,12.80
2018-07-16T02:43:12.823Z,12.80
2018-07-16T02:45:41.092Z,12.80
2018-07-16T02:48:18.883Z,12.80
2018-07-16T02:50:50.071Z,12.70
2018-07-16T02:53:18.229Z,12.70
2018-07-16T02:55:54.329Z,12.70
2018-07-16T02:58:23.008Z,12.60
2018-07-16T03:00:53.283Z,12.60
2018-07-16T03:03:24.455Z,12.50
2018-07-16T03:05:52.609Z,12.50
2018-07-16T03:08:28.159Z,12.40
2018-07-16T03:11:02.731Z,12.40
2018-07-16T03:13:33.733Z,12.40
2018-07-16T03:16:09.902Z,12.40
2018-07-16T03:18:38.070Z,12.30
2018-07-16T03:21:15.457Z,12.30
2018-07-16T03:23:46.782Z,12.30
2018-07-16T03:28:43.247Z,12.20
2018-07-16T03:31:11.666Z,12.20
2018-07-16T03:33:39.916Z,12.20
2018-07-16T03:36:11.050Z,12.20
2018-07-16T03:39:00.030Z,12.20
2018-07-16T03:41:28.210Z,12.20
2018-07-16T03:44:02.669Z,12.10
2018-07-16T03:46:35.477Z,12.10
2018-07-16T03:49:03.651Z,12.10
2018-07-16T03:51:39.560Z,12.10
2018-07-16T03:54:07.875Z,12.20
2018-07-16T03:56:36.075Z,12.20
2018-07-16T03:59:10.493Z,12.20
2018-07-16T04:01:41.605Z,12.20
2018-07-16T04:04:12.117Z,12.30
2018-07-16T04:06:44.312Z,12.30
2018-07-16T04:09:12.637Z,12.30
2018-07-16T04:11:40.779Z,12.30
2018-07-16T04:14:15.389Z,12.30
2018-07-16T04:16:47.913Z,12.40
2018-07-16T04:19:18.896Z,12.40
2018-07-16T04:21:56.946Z,12.40
2018-07-16T04:24:25.094Z,12.40
2018-07-16T04:27:05.347Z,12.40
2018-07-16T04:29:37.825Z,12.50
2018-07-16T04:32:11.089Z,12.50
2018-07-16T04:34:50.662Z,12.60
2018-07-16T04:37:25.077Z,12.60
2018-07-16T04:39:55.993Z,12.70
2018-07-16T04:42:24.238Z,12.80
2018-07-16T04:44:57.224Z,12.90
2018-07-16T04:47:27.422Z,13.00
2018-07-16T04:49:55.773Z,13.20
2018-07-16T04:52:30.143Z,13.30
2018-07-16T04:55:04.690Z,13.40
2018-07-16T04:57:37.213Z,13.50
2018-07-16T05:00:18.724Z,13.60
2018-07-16T05:02:46.897Z,13.70
2018-07-16T05:05:19.994Z,13.90
2018-07-16T05:07:52.000Z,14.10
2018-07-16T05:10:20.193Z,14.20
2018-07-16T05:12:52.420Z,14.40
2018-07-16T05:15:28.506Z,14.50
2018-07-16T05:17:56.646Z,14.70
2018-07-16T05:20:29.076Z,14.80
2018-07-16T05:23:06.713Z,15.10
2018-07-16T05:25:37.700Z,15.40
2018-07-16T05:28:07.865Z,15.90
2018-07-16T05:30:36.112Z,16.30
2018-07-16T05:33:10.808Z,16.90
2018-07-16T05:35:38.955Z,17.40
2018-07-16T05:38:10.164Z,18.00
2018-07-16T05:40:49.772Z,18.50
2018-07-16T05:43:20.910Z,18.90
2018-07-16T05:45:51.243Z,19.40
2018-07-16T05:48:19.413Z,19.70
2018-07-16T05:50:50.432Z,20.20
2018-07-16T05:53:29.190Z,20.50
2018-07-16T05:56:05.774Z,20.90
2018-07-16T05:58:36.780Z,21.00
2018-07-16T06:01:07.071Z,21.30
2018-07-16T06:03:35.553Z,21.40
2018-07-16T06:06:03.880Z,21.60
2018-07-16T06:08:32.437Z,21.90
2018-07-16T06:11:00.647Z,22.10
2018-07-16T06:13:34.730Z,22.40
2018-07-16T06:16:09.354Z,22.80
2018-07-16T06:18:40.294Z,23.20
2018-07-16T06:21:08.673Z,23.40
2018-07-16T06:23:36.814Z,23.60
2018-07-16T06:26:07.084Z,23.80
2018-07-16T06:28:46.854Z,24.00
2018-07-16T06:31:17.855Z,24.40
2018-07-16T06:33:48.382Z,24.60
2018-07-16T06:36:21.216Z,24.70
2018-07-16T06:41:29.512Z,25.20
2018-07-16T06:44:00.129Z,25.30
2018-07-16T06:46:31.039Z,25.20
2018-07-16T06:49:04.047Z,25.30
2018-07-16T06:51:32.582Z,25.40
2018-07-16T06:54:03.460Z,25.60
2018-07-16T06:56:40.133Z,25.50
2018-07-16T06:59:08.310Z,25.60
2018-07-16T07:01:38.911Z,25.60
2018-07-16T07:04:13.669Z,25.90
2018-07-16T07:06:41.839Z,26.00
2018-07-16T07:09:16.262Z,26.00
2018-07-16T07:11:53.023Z,25.90
2018-07-16T07:14:21.343Z,26.00
2018-07-16T07:16:53.718Z,26.20
2018-07-16T07:21:54.162Z,26.70
2018-07-16T07:24:22.492Z,26.70
2018-07-16T07:26:50.784Z,26.80
2018-07-16T07:29:19.139Z,26.80
2018-07-16T07:31:57.380Z,27.00
2018-07-16T07:34:35.866Z,27.30
2018-07-16T07:37:10.427Z,27.50
2018-07-16T07:39:44.797Z,27.80
2018-07-16T07:42:24.673Z,27.70
2018-07-16T07:44:53.010Z,27.80
2018-07-16T07:47:21.330Z,28.00
2018-07-16T07:49:49.623Z,27.90
2018-07-16T07:52:24.207Z,28.10
2018-07-16T07:54:55.462Z,28.10
2018-07-16T07:57:27.225Z,28.30
2018-07-16T07:59:59.761Z,28.40
2018-07-16T08:02:27.898Z,28.20
2018-07-16T08:05:00.662Z,28.30
2018-07-16T08:07:34.913Z,28.30
2018-07-16T08:10:09.151Z,28.40
2018-07-16T08:12:39.584Z,28.50
2018-07-16T08:15:10.961Z,28.70
2018-07-16T08:17:39.248Z,28.60
2018-07-16T08:20:09.694Z,28.70
2018-07-16T08:22:37.857Z,28.30
2018-07-16T08:25:12.505Z,28.70
2018-07-16T08:27:40.784Z,29.00
2018-07-16T08:30:11.861Z,29.00
2018-07-16T08:32:51.871Z,29.00
2018-07-16T08:35:20.087Z,29.00
2018-07-16T08:37:54.624Z,29.00
2018-07-16T08:40:28.638Z,29.10
2018-07-16T08:43:08.168Z,29.30
2018-07-16T08:45:40.443Z,29.40
2018-07-16T08:48:11.557Z,29.50
2018-07-16T08:50:39.814Z,29.50
2018-07-16T08:53:12.762Z,29.60
2018-07-16T08:55:41.035Z,30.00
2018-07-16T08:58:09.210Z,30.50
2018-07-16T09:00:43.836Z,30.40
2018-07-16T09:03:14.629Z,30.50
2018-07-16T09:05:43.125Z,30.20
2018-07-16T09:08:11.426Z,30.10
2018-07-16T09:10:39.588Z,30.10
2018-07-16T09:13:13.216Z,30.20
2018-07-16T09:15:47.610Z,30.10
2018-07-16T09:18:22.237Z,30.20
2018-07-16T09:20:50.409Z,30.50
2018-07-16T09:23:22.647Z,30.50
2018-07-16T09:26:02.569Z,30.50
2018-07-16T09:28:30.805Z,30.30
2018-07-16T09:31:01.864Z,30.40
2018-07-16T09:33:30.221Z,30.20
2018-07-16T09:35:58.421Z,30.00
2018-07-16T09:38:29.481Z,29.90
2018-07-16T09:40:59.686Z,29.80
2018-07-16T09:43:28.009Z,29.80
2018-07-16T09:45:56.233Z,30.10
2018-07-16T09:48:25.107Z,30.40
2018-07-16T09:50:53.270Z,30.50
2018-07-16T09:53:27.640Z,30.40
2018-07-16T09:56:05.894Z,30.30
2018-07-16T09:58:37.173Z,30.50
2018-07-16T10:01:15.280Z,30.50
2018-07-16T10:03:46.512Z,30.70
2018-07-16T10:06:17.524Z,30.70
2018-07-16T10:08:45.731Z,30.60
2018-07-16T10:11:13.888Z,30.50
2018-07-16T10:13:42.445Z,30.20
2018-07-16T10:16:11.374Z,30.20
2018-07-16T10:18:40.285Z,30.30
2018-07-16T10:21:12.672Z,30.40
2018-07-16T10:23:43.081Z,30.40
2018-07-16T10:26:20.825Z,30.50
2018-07-16T10:28:52.198Z,30.50
2018-07-16T10:31:24.853Z,30.40
2018-07-16T10:33:58.121Z,30.30
2018-07-16T10:36:28.404Z,30.30
2018-07-16T10:38:56.759Z,30.10
2018-07-16T10:41:27.997Z,30.30
2018-07-16T10:43:56.203Z,30.30
2018-07-16T10:46:33.952Z,30.60
2018-07-16T10:49:02.165Z,30.80
2018-07-16T10:51:34.536Z,30.50
2018-07-16T10:54:02.830Z,30.50
2018-07-16T10:56:33.991Z,30.70
2018-07-16T10:59:02.380Z,30.90
2018-07-16T11:01:30.708Z,31.00
2018-07-16T11:03:58.889Z,30.90
2018-07-16T11:06:32.055Z,31.00
2018-07-16T11:09:08.259Z,31.00
2018-07-16T11:11:36.491Z,31.00
2018-07-16T11:14:07.440Z,31.00
2018-07-16T11:16:37.682Z,30.90
2018-07-16T11:19:05.963Z,30.70
2018-07-16T11:21:39.631Z,30.60
2018-07-16T11:24:07.812Z,30.60
2018-07-16T11:26:42.402Z,30.70
2018-07-16T11:29:10.612Z,31.00
2018-07-16T11:31:41.643Z,31.00
2018-07-16T11:34:09.929Z,30.80
2018-07-16T11:36:38.216Z,30.90
2018-07-16T11:39:09.362Z,31.20
2018-07-16T11:41:39.510Z,31.50
2018-07-16T11:44:10.089Z,31.70
2018-07-16T11:46:38.385Z,31.80
2018-07-16T11:49:06.567Z,31.70
2018-07-16T11:51:38.793Z,31.40
2018-07-16T11:54:08.994Z,31.40
2018-07-16T11:56:37.728Z,31.50
2018-07-16T11:59:07.988Z,31.50
2018-07-16T12:01:36.451Z,31.80
2018-07-16T12:04:04.827Z,31.90
2018-07-16T12:06:33.014Z,31.60
2018-07-16T12:09:11.383Z,31.50
2018-07-16T12:11:45.925Z,31.40
2018-07-16T12:14:22.599Z,31.60
2018-07-16T12:16:50.787Z,31.60
2018-07-16T12:19:27.645Z,31.90
2018-07-16T12:21:55.858Z,32.00
2018-07-16T12:24:29.948Z,31.70
2018-07-16T12:27:02.281Z,31.70
2018-07-16T12:29:30.519Z,31.90
2018-07-16T12:31:58.683Z,32.00
2018-07-16T12:34:33.055Z,31.80
2018-07-16T12:37:06.201Z,31.70
2018-07-16T12:39:37.330Z,31.70
2018-07-16T12:42:05.595Z,31.30
2018-07-16T12:44:42.553Z,31.20
2018-07-16T12:47:12.818Z,31.10
2018-07-16T12:49:40.961Z,31.20
2018-07-16T12:52:15.633Z,31.40
2018-07-16T12:54:44.020Z,31.60
2018-07-16T12:57:16.391Z,31.70
2018-07-16T12:59:50.938Z,31.90
2018-07-16T13:02:23.244Z,32.20
2018-07-16T13:04:57.849Z,32.30
2018-07-16T13:07:28.700Z,32.30
2018-07-16T13:09:57.219Z,32.50
2018-07-16T13:12:25.562Z,32.70
2018-07-16T13:14:53.727Z,32.90
2018-07-16T13:17:28.047Z,33.00
2018-07-16T13:20:07.432Z,32.70
2018-07-16T13:22:42.108Z,32.50
2018-07-16T13:25:14.485Z,32.20
2018-07-16T13:27:45.459Z,31.80
2018-07-16T13:32:56.120Z,31.50
2018-07-16T13:35:24.290Z,31.40
2018-07-16T13:37:59.333Z,31.70
2018-07-16T13:40:37.694Z,31.30
2018-07-16T13:43:08.470Z,31.30
2018-07-16T13:45:43.692Z,31.30
2018-07-16T13:48:15.960Z,31.20
2018-07-16T13:50:44.523Z,31.10
2018-07-16T13:53:14.998Z,31.20
2018-07-16T13:55:45.203Z,30.80
2018-07-16T13:58:13.465Z,30.80
2018-07-16T14:00:56.363Z,30.90
2018-07-16T14:03:26.620Z,31.00
2018-07-16T14:05:54.804Z,31.00
2018-07-16T14:08:33.102Z,31.10
2018-07-16T14:11:06.186Z,30.90
2018-07-16T14:13:34.433Z,30.90
2018-07-16T14:16:02.687Z,31.00
2018-07-16T14:18:39.289Z,31.20
2018-07-16T14:21:07.501Z,31.30
2018-07-16T14:23:39.863Z,31.10
2018-07-16T14:26:12.125Z,31.20
2018-07-16T14:28:51.962Z,31.10
2018-07-16T14:31:20.201Z,30.90
2018-07-16T14:34:02.225Z,31.00
2018-07-16T14:36:32.471Z,31.00
2018-07-16T14:39:00.648Z,30.90
2018-07-16T14:41:33.056Z,30.90
2018-07-16T14:44:07.609Z,30.90
2018-07-16T14:46:43.116Z,30.90
2018-07-16T14:49:18.404Z,31.00
2018-07-16T14:51:50.614Z,30.90
2018-07-16T14:54:20.890Z,30.80
2018-07-16T14:56:49.191Z,30.70
2018-07-16T14:59:17.384Z,30.60
2018-07-16T15:04:25.461Z,30.60
2018-07-16T15:06:59.939Z,30.50
2018-07-16T15:09:28.187Z,30.30
2018-07-16T15:12:08.238Z,30.30
2018-07-16T15:14:39.006Z,30.20
2018-07-16T15:17:20.712Z,30.10
2018-07-16T15:19:48.923Z,30.00
2018-07-16T15:22:23.205Z,30.00
2018-07-16T15:24:56.364Z,30.00
2018-07-16T15:27:24.662Z,30.20
2018-07-16T15:29:52.885Z,30.30
2018-07-16T15:32:33.474Z,30.50
2018-07-16T15:35:01.851Z,30.60
2018-07-16T15:37:35.113Z,30.30
2018-07-16T15:40:13.546Z,30.30
2018-07-16T15:42:47.846Z,30.30
2018-07-16T15:45:20.132Z,30.30
2018-07-16T15:47:53.999Z,30.30
2018-07-16T15:50:29.943Z,30.50
2018-07-16T15:52:58.250Z,30.50
2018-07-16T15:55:26.557Z,30.50
2018-07-16T15:57:54.851Z,30.30
2018-07-16T16:00:28.897Z,30.20
2018-07-16T16:02:59.279Z,30.20
2018-07-16T16:05:29.475Z,30.10
2018-07-16T16:07:57.689Z,30.00
2018-07-16T16:10:25.813Z,29.90
2018-07-16T16:12:54.123Z,29.90
2018-07-16T16:15:22.368Z,29.90
2018-07-16T16:17:56.863Z,29.80
2018-07-16T16:20:25.056Z,29.70
2018-07-16T16:22:58.284Z,29.50
2018-07-16T16:25:40.232Z,29.50
2018-07-16T16:28:08.458Z,29.50
2018-07-16T16:30:39.611Z,29.50
2018-07-16T16:33:09.821Z,29.50
2018-07-16T16:35:37.970Z,29.40
2018-07-16T16:38:10.344Z,29.40
2018-07-16T16:40:45.705Z,29.30
2018-07-16T16:43:20.202Z,29.30
2018-07-16T16:45:52.419Z,29.30
2018-07-16T16:48:22.669Z,29.30
2018-07-16T16:50:50.878Z,29.30
2018-07-16T16:53:25.276Z,29.20
2018-07-16T16:58:33.466Z,29.10
2018-07-16T17:01:01.614Z,29.00
2018-07-16T17:03:37.058Z,28.90
2018-07-16T17:06:11.679Z,28.90
2018-07-16T17:08:39.839Z,28.80
2018-07-16T17:11:14.440Z,28.70
2018-07-16T17:13:48.979Z,28.60
2018-07-16T17:16:20.025Z,28.50
2018-07-16T17:19:00.706Z,28.50
2018-07-16T17:21:40.583Z,28.40
2018-07-16T17:24:09.228Z,28.30
2018-07-16T17:26:39.476Z,28.30
2018-07-16T17:29:07.610Z,28.20
2018-07-16T17:31:35.796Z,28.20
2018-07-16T17:34:06.917Z,28.10
2018-07-16T17:36:35.569Z,28.10
2018-07-16T17:39:06.136Z,28.00
2018-07-16T17:41:36.359Z,28.00
2018-07-16T17:44:04.591Z,27.90
2018-07-16T17:46:38.973Z,27.80
2018-07-16T17:49:20.986Z,27.70
2018-07-16T17:51:51.390Z,27.70
2018-07-16T17:54:21.627Z,27.70
2018-07-16T17:56:49.800Z,27.70
2018-07-16T17:59:29.529Z,27.60
2018-07-16T18:01:57.800Z,27.50
2018-07-16T18:07:07.784Z,27.50
2018-07-16T18:09:36.358Z,27.40
2018-07-16T18:12:04.438Z,27.30
2018-07-16T18:14:38.457Z,27.20
2018-07-16T18:17:06.674Z,27.10
2018-07-16T18:19:41.220Z,27.10
2018-07-16T18:22:09.513Z,26.90
2018-07-16T18:24:38.299Z,26.80
2018-07-16T18:27:06.461Z,26.70
2018-07-16T18:29:37.597Z,26.70
2018-07-16T18:34:43.909Z,26.60
2018-07-16T18:37:15.149Z,26.50
2018-07-16T18:39:46.231Z,26.50
2018-07-16T18:42:14.356Z,26.40
2018-07-16T18:44:49.924Z,26.30
2018-07-16T18:47:17.949Z,26.20
2018-07-16T18:49:52.504Z,26.10
2018-07-16T18:52:28.860Z,26.10
2018-07-16T18:55:01.036Z,25.90
2018-07-16T18:57:29.742Z,25.80
2018-07-16T19:02:25.982Z,25.70
2018-07-16T19:04:58.132Z,25.60
2018-07-16T19:07:28.691Z,25.50
2018-07-16T19:10:08.478Z,25.40
2018-07-16T19:12:39.553Z,25.30
2018-07-16T19:15:41.910Z,25.20
2018-07-16T19:18:14.975Z,25.00
2018-07-16T19:20:43.450Z,24.80
2018-07-16T19:23:11.577Z,24.70
2018-07-16T19:25:42.502Z,24.50
2018-07-16T19:28:12.746Z,24.40
2018-07-16T19:30:41.062Z,24.30
2018-07-16T19:35:40.456Z,24.00
2018-07-16T19:38:08.796Z,23.80
2018-07-16T19:40:36.995Z,23.70
2018-07-16T19:43:09.926Z,23.60
2018-07-16T19:45:41.045Z,23.40
2018-07-16T19:48:09.257Z,23.30
2018-07-16T19:50:43.967Z,23.10
2018-07-16T19:53:12.174Z,23.00
2018-07-16T19:55:46.493Z,22.80
2018-07-16T19:58:22.573Z,22.70
2018-07-16T20:00:50.711Z,22.60
2018-07-16T20:03:25.360Z,22.40
2018-07-16T20:05:53.519Z,22.40
2018-07-16T20:08:24.556Z,22.20
2018-07-16T20:10:52.684Z,22.10
2018-07-16T20:13:20.980Z,22.00
2018-07-16T20:15:55.410Z,21.80
2018-07-16T20:18:28.614Z,21.70
2018-07-16T20:21:07.418Z,21.60
2018-07-16T20:23:40.426Z,21.50
2018-07-16T20:26:10.604Z,21.40
2018-07-16T20:28:38.708Z,21.30
2018-07-16T20:31:12.241Z,21.20
2018-07-16T20:33:50.360Z,21.10
2018-07-16T20:36:22.830Z,21.00
2018-07-16T20:39:05.900Z,20.90
2018-07-16T20:41:34.629Z,20.80
2018-07-16T20:44:14.686Z,20.70
2018-07-16T20:46:42.885Z,20.60
2018-07-16T20:49:16.950Z,20.50
2018-07-16T20:51:55.676Z,20.40
2018-07-16T20:54:28.357Z,20.30
2018-07-16T20:56:56.650Z,20.20
2018-07-16T20:59:29.791Z,20.10
2018-07-16T21:02:01.536Z,20.10
2018-07-16T21:04:34.598Z,20.00
2018-07-16T21:07:03.061Z,19.90
2018-07-16T21:09:31.409Z,19.80
2018-07-16T21:11:59.608Z,19.80
2018-07-16T21:14:32.641Z,19.70
2018-07-16T21:17:14.576Z,19.60
2018-07-16T21:19:42.831Z,19.50
2018-07-16T21:22:17.159Z,19.50
2018-07-16T21:24:48.165Z,19.40
2018-07-16T21:27:16.260Z,19.30
2018-07-16T21:29:51.536Z,19.30
2018-07-16T21:32:22.176Z,19.20
2018-07-16T21:34:56.821Z,19.10
2018-07-16T21:37:25.090Z,19.10
2018-07-16T21:40:00.343Z,19.00
2018-07-16T21:42:34.407Z,19.00
2018-07-16T21:45:02.679Z,19.00
2018-07-16T21:47:35.189Z,18.90
2018-07-16T21:50:03.559Z,18.80
2018-07-16T21:52:37.960Z,18.80
2018-07-16T21:55:12.597Z,18.70
2018-07-16T21:57:40.705Z,18.60
2018-07-16T22:00:17.732Z,18.50
2018-07-16T22:02:45.905Z,18.50
2018-07-16T22:05:16.747Z,18.40
2018-07-16T22:07:44.901Z,18.30
2018-07-16T22:10:17.327Z,18.20
2018-07-16T22:12:50.482Z,18.20
2018-07-16T22:15:24.236Z,18.20
2018-07-16T22:17:53.545Z,18.10
2018-07-16T22:20:28.703Z,18.10
2018-07-16T22:23:09.302Z,18.00
2018-07-16T22:25:41.528Z,17.90
2018-07-16T22:28:15.583Z,17.90
2018-07-16T22:30:43.821Z,17.80
2018-07-16T22:33:16.152Z,17.80
2018-07-16T22:35:50.697Z,17.70
2018-07-16T22:38:30.529Z,17.70
2018-07-16T22:40:58.839Z,17.70
2018-07-16T22:43:27.037Z,17.60
2018-07-16T22:46:06.939Z,17.50
2018-07-16T22:48:35.264Z,17.50
2018-07-16T22:51:03.455Z,17.40
2018-07-16T22:53:38.030Z,17.40
2018-07-16T22:56:11.336Z,17.30
2018-07-16T22:58:48.933Z,17.30
2018-07-16T23:01:20.161Z,17.20
2018-07-16T23:03:51.108Z,17.20
2018-07-16T23:06:19.311Z,17.20
2018-07-16T23:08:54.254Z,17.10
2018-07-16T23:11:24.457Z,17.10
2018-07-16T23:13:52.624Z,17.00
2018-07-16T23:16:27.352Z,16.90
2018-07-16T23:18:55.531Z,16.90
2018-07-16T23:21:31.004Z,16.80
2018-07-16T23:24:02.130Z,16.80
2018-07-16T23:26:32.723Z,16.70
2018-07-16T23:29:11.023Z,16.60
2018-07-16T23:31:39.278Z,16.60
2018-07-16T23:34:07.610Z,16.50
2018-07-16T23:36:35.773Z,16.50
2018-07-16T23:39:09.244Z,16.40
2018-07-16T23:41:42.677Z,16.40
2018-07-16T23:46:38.996Z,16.30
2018-07-16T23:49:11.605Z,16.30
2018-07-16T23:51:39.779Z,16.20
2018-07-16T23:54:12.133Z,16.20
2018-07-16T23:56:54.263Z,16.10
2018-07-16T23:59:25.511Z,16.10
